sensor_id;sensor_type;location;lat;lon;timestamp;P1;durP1;ratioP1;P2;durP2;ratioP2
39924;SDS011;25592;49.986;11.618;2023-07-30T00:02:15;8.13;;;2.95;;
39924;SDS011;25592;49.986;11.618;2023-07-30T00:05:01;7.68;;;3.00;;
39924;SDS011;25592;49.986;11.618;2023-07-30T00:07:46;6.45;;;2.78;;
39924;SDS011;25592;49.986;11.618;2023-07-30T00:10:32;5.88;;;3.47;;
39924;SDS011;25592;49.986;11.618;2023-07-30T00:13:18;4.95;;;2.88;;
39924;SDS011;25592;49.986;11.618;2023-07-30T00:16:03;7.70;;;2.55;;
39924;SDS011;25592;49.986;11.618;2023-07-30T00:18:49;5.03;;;2.78;;
39924;SDS011;25592;49.986;11.618;2023-07-30T00:21:34;4.57;;;2.72;;
39924;SDS011;25592;49.986;11.618;2023-07-30T00:24:20;9.70;;;3.13;;
39924;SDS011;25592;49.986;11.618;2023-07-30T00:27:06;8.00;;;2.80;;
39924;SDS011;25592;49.986;11.618;2023-07-30T00:29:51;7.70;;;2.40;;
39924;SDS011;25592;49.986;11.618;2023-07-30T00:32:36;13.30;;;2.85;;
39924;SDS011;25592;49.986;11.618;2023-07-30T00:35:28;6.40;;;2.85;;
39924;SDS011;25592;49.986;11.618;2023-07-30T00:38:14;7.70;;;2.88;;
39924;SDS011;25592;49.986;11.618;2023-07-30T00:41:00;4.82;;;2.28;;
39924;SDS011;25592;49.986;11.618;2023-07-30T00:43:46;5.65;;;2.40;;
39924;SDS011;25592;49.986;11.618;2023-07-30T00:46:31;6.78;;;2.53;;
39924;SDS011;25592;49.986;11.618;2023-07-30T00:49:17;5.10;;;2.42;;
39924;SDS011;25592;49.986;11.618;2023-07-30T00:52:03;10.73;;;2.70;;
39924;SDS011;25592;49.986;11.618;2023-07-30T00:54:49;7.35;;;2.40;;
39924;SDS011;25592;49.986;11.618;2023-07-30T00:57:36;7.75;;;2.47;;
39924;SDS011;25592;49.986;11.618;2023-07-30T01:00:22;4.18;;;2.35;;
39924;SDS011;25592;49.986;11.618;2023-07-30T01:03:09;4.00;;;2.58;;
39924;SDS011;25592;49.986;11.618;2023-07-30T01:05:55;6.65;;;2.70;;
39924;SDS011;25592;49.986;11.618;2023-07-30T01:08:40;5.78;;;2.70;;
39924;SDS011;25592;49.986;11.618;2023-07-30T01:11:26;4.80;;;2.78;;
39924;SDS011;25592;49.986;11.618;2023-07-30T01:14:11;5.90;;;3.35;;
39924;SDS011;25592;49.986;11.618;2023-07-30T01:16:58;5.57;;;2.88;;
39924;SDS011;25592;49.986;11.618;2023-07-30T01:19:44;7.65;;;3.08;;
39924;SDS011;25592;49.986;11.618;2023-07-30T01:22:30;5.72;;;2.70;;
39924;SDS011;25592;49.986;11.618;2023-07-30T01:25:15;7.93;;;2.58;;
39924;SDS011;25592;49.986;11.618;2023-07-30T01:28:01;7.32;;;2.55;;
39924;SDS011;25592;49.986;11.618;2023-07-30T01:30:50;10.13;;;2.45;;
39924;SDS011;25592;49.986;11.618;2023-07-30T01:33:36;4.40;;;2.22;;
39924;SDS011;25592;49.986;11.618;2023-07-30T01:36:22;5.03;;;2.45;;
39924;SDS011;25592;49.986;11.618;2023-07-30T01:39:08;4.70;;;2.70;;
39924;SDS011;25592;49.986;11.618;2023-07-30T01:41:54;6.13;;;3.03;;
39924;SDS011;25592;49.986;11.618;2023-07-30T01:44:40;5.22;;;2.65;;
39924;SDS011;25592;49.986;11.618;2023-07-30T01:47:25;4.10;;;2.60;;
39924;SDS011;25592;49.986;11.618;2023-07-30T01:50:11;7.03;;;2.40;;
39924;SDS011;25592;49.986;11.618;2023-07-30T01:52:56;7.00;;;2.22;;
39924;SDS011;25592;49.986;11.618;2023-07-30T01:55:42;3.83;;;2.35;;
39924;SDS011;25592;49.986;11.618;2023-07-30T01:58:31;8.15;;;2.58;;
39924;SDS011;25592;49.986;11.618;2023-07-30T02:01:16;9.82;;;3.05;;
39924;SDS011;25592;49.986;11.618;2023-07-30T02:04:02;7.25;;;3.15;;
39924;SDS011;25592;49.986;11.618;2023-07-30T02:06:48;4.13;;;2.83;;
39924;SDS011;25592;49.986;11.618;2023-07-30T02:09:33;8.38;;;2.90;;
39924;SDS011;25592;49.986;11.618;2023-07-30T02:12:19;10.43;;;3.30;;
39924;SDS011;25592;49.986;11.618;2023-07-30T02:15:04;4.47;;;2.60;;
39924;SDS011;25592;49.986;11.618;2023-07-30T02:17:50;13.32;;;3.00;;
39924;SDS011;25592;49.986;11.618;2023-07-30T02:20:36;9.20;;;3.20;;
39924;SDS011;25592;49.986;11.618;2023-07-30T02:23:21;5.07;;;3.00;;
39924;SDS011;25592;49.986;11.618;2023-07-30T02:26:07;15.90;;;10.48;;
39924;SDS011;25592;49.986;11.618;2023-07-30T02:28:52;10.55;;;7.57;;
39924;SDS011;25592;49.986;11.618;2023-07-30T02:31:38;7.78;;;6.25;;
39924;SDS011;25592;49.986;11.618;2023-07-30T02:34:24;11.50;;;5.95;;
39924;SDS011;25592;49.986;11.618;2023-07-30T02:37:09;8.95;;;5.55;;
39924;SDS011;25592;49.986;11.618;2023-07-30T02:39:55;9.65;;;5.60;;
39924;SDS011;25592;49.986;11.618;2023-07-30T02:42:40;7.72;;;5.43;;
39924;SDS011;25592;49.986;11.618;2023-07-30T02:45:25;8.30;;;3.83;;
39924;SDS011;25592;49.986;11.618;2023-07-30T02:48:11;8.65;;;4.65;;
39924;SDS011;25592;49.986;11.618;2023-07-30T02:50:56;7.28;;;5.05;;
39924;SDS011;25592;49.986;11.618;2023-07-30T02:53:45;8.75;;;5.07;;
39924;SDS011;25592;49.986;11.618;2023-07-30T02:56:30;5.80;;;4.38;;
39924;SDS011;25592;49.986;11.618;2023-07-30T02:59:16;6.35;;;3.92;;
39924;SDS011;25592;49.986;11.618;2023-07-30T03:02:02;8.73;;;4.70;;
39924;SDS011;25592;49.986;11.618;2023-07-30T03:04:49;9.00;;;5.22;;
39924;SDS011;25592;49.986;11.618;2023-07-30T03:07:35;9.25;;;5.18;;
39924;SDS011;25592;49.986;11.618;2023-07-30T03:10:20;7.00;;;5.40;;
39924;SDS011;25592;49.986;11.618;2023-07-30T03:13:06;7.78;;;5.65;;
39924;SDS011;25592;49.986;11.618;2023-07-30T03:15:51;9.80;;;5.38;;
39924;SDS011;25592;49.986;11.618;2023-07-30T03:18:37;8.48;;;4.90;;
39924;SDS011;25592;49.986;11.618;2023-07-30T03:21:22;6.97;;;4.90;;
39924;SDS011;25592;49.986;11.618;2023-07-30T03:24:08;8.90;;;3.83;;
39924;SDS011;25592;49.986;11.618;2023-07-30T03:26:53;5.13;;;3.97;;
39924;SDS011;25592;49.986;11.618;2023-07-30T03:29:38;7.78;;;3.83;;
39924;SDS011;25592;49.986;11.618;2023-07-30T03:32:24;8.93;;;3.85;;
39924;SDS011;25592;49.986;11.618;2023-07-30T03:35:09;7.63;;;3.97;;
39924;SDS011;25592;49.986;11.618;2023-07-30T03:37:55;6.85;;;3.83;;
39924;SDS011;25592;49.986;11.618;2023-07-30T03:40:40;6.50;;;3.30;;
39924;SDS011;25592;49.986;11.618;2023-07-30T03:43:25;7.55;;;3.22;;
39924;SDS011;25592;49.986;11.618;2023-07-30T03:46:11;7.35;;;3.05;;
39924;SDS011;25592;49.986;11.618;2023-07-30T03:48:56;8.00;;;3.13;;
39924;SDS011;25592;49.986;11.618;2023-07-30T03:51:42;9.57;;;3.42;;
39924;SDS011;25592;49.986;11.618;2023-07-30T03:54:27;7.30;;;3.20;;
39924;SDS011;25592;49.986;11.618;2023-07-30T03:57:13;7.45;;;3.92;;
39924;SDS011;25592;49.986;11.618;2023-07-30T03:59:58;7.55;;;3.50;;
39924;SDS011;25592;49.986;11.618;2023-07-30T04:02:44;4.78;;;3.03;;
39924;SDS011;25592;49.986;11.618;2023-07-30T04:05:30;8.00;;;3.47;;
39924;SDS011;25592;49.986;11.618;2023-07-30T04:08:16;8.85;;;3.80;;
39924;SDS011;25592;49.986;11.618;2023-07-30T04:11:01;10.45;;;4.15;;
39924;SDS011;25592;49.986;11.618;2023-07-30T04:13:47;4.05;;;2.63;;
39924;SDS011;25592;49.986;11.618;2023-07-30T04:16:32;9.30;;;3.10;;
39924;SDS011;25592;49.986;11.618;2023-07-30T04:19:18;5.07;;;2.72;;
39924;SDS011;25592;49.986;11.618;2023-07-30T04:22:04;7.00;;;3.60;;
39924;SDS011;25592;49.986;11.618;2023-07-30T04:24:49;5.90;;;3.70;;
39924;SDS011;25592;49.986;11.618;2023-07-30T04:27:35;7.05;;;3.00;;
39924;SDS011;25592;49.986;11.618;2023-07-30T04:30:20;5.50;;;3.20;;
39924;SDS011;25592;49.986;11.618;2023-07-30T04:33:06;6.22;;;4.45;;
39924;SDS011;25592;49.986;11.618;2023-07-30T04:35:51;6.07;;;3.63;;
39924;SDS011;25592;49.986;11.618;2023-07-30T04:38:37;5.15;;;2.97;;
39924;SDS011;25592;49.986;11.618;2023-07-30T04:41:22;5.15;;;3.20;;
39924;SDS011;25592;49.986;11.618;2023-07-30T04:44:08;6.47;;;3.15;;
39924;SDS011;25592;49.986;11.618;2023-07-30T04:46:54;5.53;;;3.42;;
39924;SDS011;25592;49.986;11.618;2023-07-30T04:49:39;5.10;;;3.00;;
39924;SDS011;25592;49.986;11.618;2023-07-30T04:52:25;5.28;;;3.22;;
39924;SDS011;25592;49.986;11.618;2023-07-30T04:55:10;6.40;;;3.33;;
39924;SDS011;25592;49.986;11.618;2023-07-30T04:57:56;7.70;;;3.35;;
39924;SDS011;25592;49.986;11.618;2023-07-30T05:00:41;5.70;;;3.17;;
39924;SDS011;25592;49.986;11.618;2023-07-30T05:03:28;7.80;;;3.47;;
39924;SDS011;25592;49.986;11.618;2023-07-30T05:06:13;7.30;;;3.45;;
39924;SDS011;25592;49.986;11.618;2023-07-30T05:08:58;5.93;;;3.20;;
39924;SDS011;25592;49.986;11.618;2023-07-30T05:11:44;7.57;;;3.47;;
39924;SDS011;25592;49.986;11.618;2023-07-30T05:14:29;5.93;;;4.00;;
39924;SDS011;25592;49.986;11.618;2023-07-30T05:17:15;7.53;;;3.75;;
39924;SDS011;25592;49.986;11.618;2023-07-30T05:20:00;5.40;;;3.22;;
39924;SDS011;25592;49.986;11.618;2023-07-30T05:22:46;4.82;;;3.30;;
39924;SDS011;25592;49.986;11.618;2023-07-30T05:25:31;5.07;;;3.42;;
39924;SDS011;25592;49.986;11.618;2023-07-30T05:28:17;7.80;;;3.65;;
39924;SDS011;25592;49.986;11.618;2023-07-30T05:31:02;5.07;;;3.30;;
39924;SDS011;25592;49.986;11.618;2023-07-30T05:33:48;6.47;;;3.58;;
39924;SDS011;25592;49.986;11.618;2023-07-30T05:36:33;6.43;;;3.83;;
39924;SDS011;25592;49.986;11.618;2023-07-30T05:39:18;5.78;;;3.30;;
39924;SDS011;25592;49.986;11.618;2023-07-30T05:42:04;5.32;;;3.55;;
39924;SDS011;25592;49.986;11.618;2023-07-30T05:44:49;6.95;;;3.53;;
39924;SDS011;25592;49.986;11.618;2023-07-30T05:47:35;5.57;;;3.60;;
39924;SDS011;25592;49.986;11.618;2023-07-30T05:50:20;8.63;;;4.13;;
39924;SDS011;25592;49.986;11.618;2023-07-30T05:53:06;7.22;;;3.88;;
39924;SDS011;25592;49.986;11.618;2023-07-30T05:55:51;5.93;;;4.00;;
39924;SDS011;25592;49.986;11.618;2023-07-30T05:58:37;5.95;;;4.07;;
39924;SDS011;25592;49.986;11.618;2023-07-30T06:01:22;6.00;;;4.38;;
39924;SDS011;25592;49.986;11.618;2023-07-30T06:04:08;5.97;;;3.47;;
39924;SDS011;25592;49.986;11.618;2023-07-30T06:06:53;5.65;;;4.10;;
39924;SDS011;25592;49.986;11.618;2023-07-30T06:09:39;5.57;;;4.20;;
39924;SDS011;25592;49.986;11.618;2023-07-30T06:12:24;8.40;;;4.68;;
39924;SDS011;25592;49.986;11.618;2023-07-30T06:15:10;8.30;;;4.30;;
39924;SDS011;25592;49.986;11.618;2023-07-30T06:17:55;6.78;;;4.25;;
39924;SDS011;25592;49.986;11.618;2023-07-30T06:20:41;8.82;;;4.10;;
39924;SDS011;25592;49.986;11.618;2023-07-30T06:23:26;7.32;;;4.38;;
39924;SDS011;25592;49.986;11.618;2023-07-30T06:26:12;6.60;;;4.50;;
39924;SDS011;25592;49.986;11.618;2023-07-30T06:28:57;9.18;;;4.80;;
39924;SDS011;25592;49.986;11.618;2023-07-30T06:31:43;7.55;;;4.70;;
39924;SDS011;25592;49.986;11.618;2023-07-30T06:34:28;6.97;;;4.57;;
39924;SDS011;25592;49.986;11.618;2023-07-30T06:37:14;8.50;;;4.70;;
39924;SDS011;25592;49.986;11.618;2023-07-30T06:39:59;6.10;;;4.60;;
39924;SDS011;25592;49.986;11.618;2023-07-30T06:42:44;8.95;;;4.35;;
39924;SDS011;25592;49.986;11.618;2023-07-30T06:45:30;7.00;;;4.28;;
39924;SDS011;25592;49.986;11.618;2023-07-30T06:48:15;5.93;;;4.18;;
39924;SDS011;25592;49.986;11.618;2023-07-30T06:51:01;6.15;;;4.00;;
39924;SDS011;25592;49.986;11.618;2023-07-30T06:53:50;8.15;;;4.10;;
39924;SDS011;25592;49.986;11.618;2023-07-30T06:56:36;8.02;;;4.18;;
39924;SDS011;25592;49.986;11.618;2023-07-30T06:59:21;6.20;;;4.18;;
39924;SDS011;25592;49.986;11.618;2023-07-30T07:02:07;7.30;;;4.20;;
39924;SDS011;25592;49.986;11.618;2023-07-30T07:04:53;6.35;;;4.35;;
39924;SDS011;25592;49.986;11.618;2023-07-30T07:07:39;6.40;;;3.75;;
39924;SDS011;25592;49.986;11.618;2023-07-30T07:10:24;9.23;;;4.30;;
39924;SDS011;25592;49.986;11.618;2023-07-30T07:13:10;8.20;;;4.03;;
39924;SDS011;25592;49.986;11.618;2023-07-30T07:15:57;5.60;;;3.88;;
39924;SDS011;25592;49.986;11.618;2023-07-30T07:18:43;5.28;;;3.75;;
39924;SDS011;25592;49.986;11.618;2023-07-30T07:21:28;8.80;;;4.30;;
39924;SDS011;25592;49.986;11.618;2023-07-30T07:24:14;5.88;;;4.03;;
39924;SDS011;25592;49.986;11.618;2023-07-30T07:27:00;10.15;;;4.30;;
39924;SDS011;25592;49.986;11.618;2023-07-30T07:29:45;7.10;;;4.18;;
39924;SDS011;25592;49.986;11.618;2023-07-30T07:32:31;6.05;;;4.38;;
39924;SDS011;25592;49.986;11.618;2023-07-30T07:35:22;5.87;;;3.73;;
39924;SDS011;25592;49.986;11.618;2023-07-30T07:38:08;5.20;;;3.65;;
39924;SDS011;25592;49.986;11.618;2023-07-30T07:40:54;5.95;;;4.10;;
39924;SDS011;25592;49.986;11.618;2023-07-30T07:43:39;6.05;;;3.92;;
39924;SDS011;25592;49.986;11.618;2023-07-30T07:46:25;6.32;;;3.72;;
39924;SDS011;25592;49.986;11.618;2023-07-30T07:49:12;6.40;;;4.30;;
39924;SDS011;25592;49.986;11.618;2023-07-30T07:51:58;6.15;;;4.55;;
39924;SDS011;25592;49.986;11.618;2023-07-30T07:54:44;5.85;;;4.20;;
39924;SDS011;25592;49.986;11.618;2023-07-30T07:57:30;8.57;;;5.20;;
39924;SDS011;25592;49.986;11.618;2023-07-30T08:00:16;6.28;;;4.88;;
39924;SDS011;25592;49.986;11.618;2023-07-30T08:03:03;6.05;;;4.10;;
39924;SDS011;25592;49.986;11.618;2023-07-30T08:05:49;5.88;;;4.00;;
39924;SDS011;25592;49.986;11.618;2023-07-30T08:08:34;5.28;;;3.67;;
39924;SDS011;25592;49.986;11.618;2023-07-30T08:11:20;6.57;;;3.53;;
39924;SDS011;25592;49.986;11.618;2023-07-30T08:14:06;7.18;;;4.30;;
39924;SDS011;25592;49.986;11.618;2023-07-30T08:16:52;4.63;;;3.00;;
39924;SDS011;25592;49.986;11.618;2023-07-30T08:19:37;10.50;;;3.55;;
39924;SDS011;25592;49.986;11.618;2023-07-30T08:22:23;5.53;;;3.40;;
39924;SDS011;25592;49.986;11.618;2023-07-30T08:25:08;4.25;;;2.50;;
39924;SDS011;25592;49.986;11.618;2023-07-30T08:27:53;3.85;;;2.78;;
39924;SDS011;25592;49.986;11.618;2023-07-30T08:30:39;4.88;;;3.05;;
39924;SDS011;25592;49.986;11.618;2023-07-30T08:33:24;5.65;;;3.22;;
39924;SDS011;25592;49.986;11.618;2023-07-30T08:36:11;3.70;;;2.67;;
39924;SDS011;25592;49.986;11.618;2023-07-30T08:38:57;6.18;;;2.97;;
39924;SDS011;25592;49.986;11.618;2023-07-30T08:41:42;5.38;;;3.10;;
39924;SDS011;25592;49.986;11.618;2023-07-30T08:44:28;4.07;;;2.58;;
39924;SDS011;25592;49.986;11.618;2023-07-30T08:47:14;4.40;;;2.88;;
39924;SDS011;25592;49.986;11.618;2023-07-30T08:50:00;4.18;;;2.28;;
39924;SDS011;25592;49.986;11.618;2023-07-30T08:52:45;12.75;;;3.22;;
39924;SDS011;25592;49.986;11.618;2023-07-30T08:55:32;3.33;;;2.30;;
39924;SDS011;25592;49.986;11.618;2023-07-30T08:58:18;5.63;;;2.72;;
39924;SDS011;25592;49.986;11.618;2023-07-30T09:01:11;5.05;;;2.53;;
39924;SDS011;25592;49.986;11.618;2023-07-30T09:03:57;4.18;;;2.20;;
39924;SDS011;25592;49.986;11.618;2023-07-30T09:06:48;5.63;;;2.38;;
39924;SDS011;25592;49.986;11.618;2023-07-30T09:09:37;4.30;;;2.45;;
39924;SDS011;25592;49.986;11.618;2023-07-30T09:12:26;3.40;;;2.22;;
39924;SDS011;25592;49.986;11.618;2023-07-30T09:15:14;3.25;;;2.17;;
39924;SDS011;25592;49.986;11.618;2023-07-30T09:18:00;4.50;;;2.38;;
39924;SDS011;25592;49.986;11.618;2023-07-30T09:20:46;3.25;;;2.08;;
39924;SDS011;25592;49.986;11.618;2023-07-30T09:23:31;2.78;;;1.50;;
39924;SDS011;25592;49.986;11.618;2023-07-30T09:26:17;3.17;;;1.73;;
39924;SDS011;25592;49.986;11.618;2023-07-30T09:29:06;4.05;;;1.58;;
39924;SDS011;25592;49.986;11.618;2023-07-30T09:31:53;2.97;;;1.92;;
39924;SDS011;25592;49.986;11.618;2023-07-30T09:34:40;6.10;;;2.00;;
39924;SDS011;25592;49.986;11.618;2023-07-30T09:37:29;3.17;;;2.00;;
39924;SDS011;25592;49.986;11.618;2023-07-30T09:40:15;3.20;;;1.70;;
39924;SDS011;25592;49.986;11.618;2023-07-30T09:43:03;2.10;;;1.33;;
39924;SDS011;25592;49.986;11.618;2023-07-30T09:45:49;3.67;;;1.90;;
39924;SDS011;25592;49.986;11.618;2023-07-30T09:48:35;3.35;;;1.90;;
39924;SDS011;25592;49.986;11.618;2023-07-30T09:51:20;3.00;;;1.65;;
39924;SDS011;25592;49.986;11.618;2023-07-30T09:54:11;2.72;;;1.67;;
39924;SDS011;25592;49.986;11.618;2023-07-30T09:56:59;3.78;;;1.77;;
39924;SDS011;25592;49.986;11.618;2023-07-30T09:59:45;2.90;;;1.75;;
39924;SDS011;25592;49.986;11.618;2023-07-30T10:02:30;3.55;;;2.00;;
39924;SDS011;25592;49.986;11.618;2023-07-30T10:05:20;4.13;;;1.90;;
39924;SDS011;25592;49.986;11.618;2023-07-30T10:08:10;4.05;;;2.20;;
39924;SDS011;25592;49.986;11.618;2023-07-30T10:10:59;2.67;;;1.67;;
39924;SDS011;25592;49.986;11.618;2023-07-30T10:13:45;4.13;;;2.00;;
39924;SDS011;25592;49.986;11.618;2023-07-30T10:16:31;3.00;;;2.10;;
39924;SDS011;25592;49.986;11.618;2023-07-30T10:19:17;3.22;;;2.10;;
39924;SDS011;25592;49.986;11.618;2023-07-30T10:24:58;2.58;;;1.63;;
39924;SDS011;25592;49.986;11.618;2023-07-30T10:27:49;4.07;;;2.45;;
39924;SDS011;25592;49.986;11.618;2023-07-30T10:30:35;4.05;;;1.75;;
39924;SDS011;25592;49.986;11.618;2023-07-30T10:33:21;2.45;;;1.65;;
39924;SDS011;25592;49.986;11.618;2023-07-30T10:36:06;2.97;;;1.90;;
39924;SDS011;25592;49.986;11.618;2023-07-30T10:38:52;3.83;;;1.63;;
39924;SDS011;25592;49.986;11.618;2023-07-30T10:41:37;2.70;;;1.50;;
39924;SDS011;25592;49.986;11.618;2023-07-30T10:44:31;3.47;;;2.17;;
39924;SDS011;25592;49.986;11.618;2023-07-30T10:47:17;2.92;;;1.75;;
39924;SDS011;25592;49.986;11.618;2023-07-30T10:50:22;2.97;;;1.42;;
39924;SDS011;25592;49.986;11.618;2023-07-30T10:53:10;2.95;;;1.40;;
39924;SDS011;25592;49.986;11.618;2023-07-30T10:55:59;2.83;;;1.50;;
39924;SDS011;25592;49.986;11.618;2023-07-30T10:58:50;3.00;;;1.60;;
39924;SDS011;25592;49.986;11.618;2023-07-30T11:01:38;2.53;;;1.33;;
39924;SDS011;25592;49.986;11.618;2023-07-30T11:04:25;3.15;;;1.77;;
39924;SDS011;25592;49.986;11.618;2023-07-30T11:07:11;4.03;;;1.50;;
39924;SDS011;25592;49.986;11.618;2023-07-30T11:10:02;2.45;;;1.50;;
39924;SDS011;25592;49.986;11.618;2023-07-30T11:12:48;2.63;;;1.60;;
39924;SDS011;25592;49.986;11.618;2023-07-30T11:15:40;3.28;;;1.55;;
39924;SDS011;25592;49.986;11.618;2023-07-30T11:21:17;3.17;;;1.63;;
39924;SDS011;25592;49.986;11.618;2023-07-30T11:24:03;2.55;;;1.45;;
39924;SDS011;25592;49.986;11.618;2023-07-30T11:26:58;2.47;;;1.50;;
39924;SDS011;25592;49.986;11.618;2023-07-30T11:29:53;2.65;;;1.42;;
39924;SDS011;25592;49.986;11.618;2023-07-30T11:32:39;2.38;;;1.20;;
39924;SDS011;25592;49.986;11.618;2023-07-30T11:35:26;3.10;;;1.40;;
39924;SDS011;25592;49.986;11.618;2023-07-30T11:38:12;2.85;;;1.60;;
39924;SDS011;25592;49.986;11.618;2023-07-30T11:40:58;5.68;;;1.40;;
39924;SDS011;25592;49.986;11.618;2023-07-30T11:43:44;2.92;;;1.38;;
39924;SDS011;25592;49.986;11.618;2023-07-30T11:46:30;2.65;;;1.30;;
39924;SDS011;25592;49.986;11.618;2023-07-30T11:49:20;2.70;;;1.45;;
39924;SDS011;25592;49.986;11.618;2023-07-30T11:52:07;3.55;;;1.90;;
39924;SDS011;25592;49.986;11.618;2023-07-30T11:55:00;2.10;;;1.10;;
39924;SDS011;25592;49.986;11.618;2023-07-30T11:57:48;5.05;;;1.60;;
39924;SDS011;25592;49.986;11.618;2023-07-30T12:00:35;3.75;;;1.88;;
39924;SDS011;25592;49.986;11.618;2023-07-30T12:03:22;2.45;;;1.60;;
39924;SDS011;25592;49.986;11.618;2023-07-30T12:06:11;4.05;;;1.90;;
39924;SDS011;25592;49.986;11.618;2023-07-30T12:08:57;4.07;;;1.70;;
39924;SDS011;25592;49.986;11.618;2023-07-30T12:17:33;4.15;;;1.70;;
39924;SDS011;25592;49.986;11.618;2023-07-30T12:20:19;4.15;;;1.58;;
39924;SDS011;25592;49.986;11.618;2023-07-30T12:23:05;4.88;;;1.60;;
39924;SDS011;25592;49.986;11.618;2023-07-30T12:25:50;4.97;;;1.50;;
39924;SDS011;25592;49.986;11.618;2023-07-30T12:28:36;2.35;;;1.20;;
39924;SDS011;25592;49.986;11.618;2023-07-30T12:31:21;3.05;;;1.30;;
39924;SDS011;25592;49.986;11.618;2023-07-30T12:34:07;3.40;;;1.40;;
39924;SDS011;25592;49.986;11.618;2023-07-30T12:36:52;2.65;;;1.33;;
39924;SDS011;25592;49.986;11.618;2023-07-30T12:39:38;2.38;;;1.20;;
39924;SDS011;25592;49.986;11.618;2023-07-30T12:42:23;4.15;;;1.42;;
39924;SDS011;25592;49.986;11.618;2023-07-30T12:45:09;3.80;;;1.63;;
39924;SDS011;25592;49.986;11.618;2023-07-30T12:47:55;4.75;;;1.30;;
39924;SDS011;25592;49.986;11.618;2023-07-30T12:50:40;3.58;;;1.73;;
39924;SDS011;25592;49.986;11.618;2023-07-30T12:53:26;17.80;;;2.67;;
39924;SDS011;25592;49.986;11.618;2023-07-30T12:56:11;3.80;;;1.50;;
39924;SDS011;25592;49.986;11.618;2023-07-30T12:58:57;6.85;;;2.17;;
39924;SDS011;25592;49.986;11.618;2023-07-30T13:01:42;3.15;;;1.30;;
39924;SDS011;25592;49.986;11.618;2023-07-30T13:04:32;2.88;;;1.20;;
39924;SDS011;25592;49.986;11.618;2023-07-30T13:07:17;3.13;;;1.70;;
39924;SDS011;25592;49.986;11.618;2023-07-30T13:10:07;2.95;;;1.58;;
39924;SDS011;25592;49.986;11.618;2023-07-30T13:12:53;5.13;;;1.90;;
39924;SDS011;25592;49.986;11.618;2023-07-30T13:15:39;3.45;;;1.75;;
39924;SDS011;25592;49.986;11.618;2023-07-30T13:18:24;4.13;;;1.83;;
39924;SDS011;25592;49.986;11.618;2023-07-30T13:21:10;2.92;;;1.70;;
39924;SDS011;25592;49.986;11.618;2023-07-30T13:23:55;3.58;;;1.52;;
39924;SDS011;25592;49.986;11.618;2023-07-30T13:26:41;3.33;;;1.70;;
39924;SDS011;25592;49.986;11.618;2023-07-30T13:29:26;2.67;;;1.25;;
39924;SDS011;25592;49.986;11.618;2023-07-30T13:32:12;2.95;;;1.60;;
39924;SDS011;25592;49.986;11.618;2023-07-30T13:34:57;3.40;;;1.50;;
39924;SDS011;25592;49.986;11.618;2023-07-30T13:37:43;2.47;;;1.30;;
39924;SDS011;25592;49.986;11.618;2023-07-30T13:40:29;2.47;;;1.50;;
39924;SDS011;25592;49.986;11.618;2023-07-30T13:43:14;2.88;;;1.45;;
39924;SDS011;25592;49.986;11.618;2023-07-30T13:46:00;2.80;;;1.88;;
39924;SDS011;25592;49.986;11.618;2023-07-30T13:48:45;3.10;;;1.60;;
39924;SDS011;25592;49.986;11.618;2023-07-30T13:51:31;7.82;;;2.15;;
39924;SDS011;25592;49.986;11.618;2023-07-30T13:54:17;6.40;;;2.13;;
39924;SDS011;25592;49.986;11.618;2023-07-30T13:57:03;7.63;;;1.40;;
39924;SDS011;25592;49.986;11.618;2023-07-30T13:59:53;5.93;;;1.45;;
39924;SDS011;25592;49.986;11.618;2023-07-30T14:02:38;4.15;;;1.55;;
39924;SDS011;25592;49.986;11.618;2023-07-30T14:05:23;5.13;;;1.50;;
39924;SDS011;25592;49.986;11.618;2023-07-30T14:08:09;4.15;;;1.40;;
39924;SDS011;25592;49.986;11.618;2023-07-30T14:10:54;3.80;;;1.48;;
39924;SDS011;25592;49.986;11.618;2023-07-30T14:13:40;3.08;;;1.20;;
39924;SDS011;25592;49.986;11.618;2023-07-30T14:16:25;3.53;;;1.52;;
39924;SDS011;25592;49.986;11.618;2023-07-30T14:19:11;3.22;;;1.80;;
39924;SDS011;25592;49.986;11.618;2023-07-30T14:21:57;3.03;;;1.27;;
39924;SDS011;25592;49.986;11.618;2023-07-30T14:24:42;3.33;;;1.30;;
39924;SDS011;25592;49.986;11.618;2023-07-30T14:27:29;2.83;;;1.02;;
39924;SDS011;25592;49.986;11.618;2023-07-30T14:30:15;3.25;;;1.05;;
39924;SDS011;25592;49.986;11.618;2023-07-30T14:33:00;2.20;;;1.10;;
39924;SDS011;25592;49.986;11.618;2023-07-30T14:35:46;2.67;;;1.10;;
39924;SDS011;25592;49.986;11.618;2023-07-30T14:38:31;5.05;;;1.30;;
39924;SDS011;25592;49.986;11.618;2023-07-30T14:41:18;1.90;;;0.90;;
39924;SDS011;25592;49.986;11.618;2023-07-30T14:44:04;4.10;;;1.05;;
39924;SDS011;25592;49.986;11.618;2023-07-30T14:46:50;3.45;;;1.10;;
39924;SDS011;25592;49.986;11.618;2023-07-30T14:49:35;2.47;;;1.25;;
39924;SDS011;25592;49.986;11.618;2023-07-30T14:52:23;2.28;;;1.23;;
39924;SDS011;25592;49.986;11.618;2023-07-30T14:55:09;4.05;;;1.40;;
39924;SDS011;25592;49.986;11.618;2023-07-30T14:57:56;2.83;;;1.40;;
39924;SDS011;25592;49.986;11.618;2023-07-30T15:00:47;2.78;;;1.20;;
39924;SDS011;25592;49.986;11.618;2023-07-30T15:03:33;7.47;;;1.55;;
39924;SDS011;25592;49.986;11.618;2023-07-30T15:06:18;1.80;;;1.02;;
39924;SDS011;25592;49.986;11.618;2023-07-30T15:09:05;2.25;;;1.13;;
39924;SDS011;25592;49.986;11.618;2023-07-30T15:11:51;2.45;;;1.02;;
39924;SDS011;25592;49.986;11.618;2023-07-30T15:14:36;2.63;;;1.17;;
39924;SDS011;25592;49.986;11.618;2023-07-30T15:17:22;1.83;;;1.08;;
39924;SDS011;25592;49.986;11.618;2023-07-30T15:20:07;2.40;;;1.23;;
39924;SDS011;25592;49.986;11.618;2023-07-30T15:22:53;5.07;;;1.33;;
39924;SDS011;25592;49.986;11.618;2023-07-30T15:25:39;2.20;;;1.05;;
39924;SDS011;25592;49.986;11.618;2023-07-30T15:28:24;2.83;;;1.15;;
39924;SDS011;25592;49.986;11.618;2023-07-30T15:31:10;4.13;;;1.48;;
39924;SDS011;25592;49.986;11.618;2023-07-30T15:33:55;1.95;;;0.98;;
39924;SDS011;25592;49.986;11.618;2023-07-30T15:36:41;2.28;;;1.10;;
39924;SDS011;25592;49.986;11.618;2023-07-30T15:39:26;2.63;;;1.13;;
39924;SDS011;25592;49.986;11.618;2023-07-30T15:42:11;2.45;;;1.50;;
39924;SDS011;25592;49.986;11.618;2023-07-30T15:44:57;5.55;;;1.10;;
39924;SDS011;25592;49.986;11.618;2023-07-30T15:47:43;2.72;;;1.02;;
39924;SDS011;25592;49.986;11.618;2023-07-30T15:50:28;2.13;;;1.23;;
39924;SDS011;25592;49.986;11.618;2023-07-30T15:53:14;3.10;;;1.20;;
39924;SDS011;25592;49.986;11.618;2023-07-30T15:56:00;4.07;;;1.30;;
39924;SDS011;25592;49.986;11.618;2023-07-30T15:58:48;1.90;;;1.00;;
39924;SDS011;25592;49.986;11.618;2023-07-30T16:01:33;3.88;;;1.27;;
39924;SDS011;25592;49.986;11.618;2023-07-30T16:04:18;3.83;;;1.52;;
39924;SDS011;25592;49.986;11.618;2023-07-30T16:07:04;3.42;;;1.55;;
39924;SDS011;25592;49.986;11.618;2023-07-30T16:09:50;6.80;;;1.38;;
39924;SDS011;25592;49.986;11.618;2023-07-30T16:12:36;3.13;;;1.20;;
39924;SDS011;25592;49.986;11.618;2023-07-30T16:15:25;7.50;;;1.10;;
39924;SDS011;25592;49.986;11.618;2023-07-30T16:18:11;3.65;;;1.23;;
39924;SDS011;25592;49.986;11.618;2023-07-30T16:21:04;2.70;;;1.33;;
39924;SDS011;25592;49.986;11.618;2023-07-30T16:23:50;3.03;;;1.05;;
39924;SDS011;25592;49.986;11.618;2023-07-30T16:26:35;5.25;;;1.42;;
39924;SDS011;25592;49.986;11.618;2023-07-30T16:29:21;3.28;;;1.20;;
39924;SDS011;25592;49.986;11.618;2023-07-30T16:32:07;3.22;;;1.20;;
39924;SDS011;25592;49.986;11.618;2023-07-30T16:34:52;4.18;;;1.17;;
39924;SDS011;25592;49.986;11.618;2023-07-30T16:37:38;4.30;;;1.10;;